DRZA/AJY METAR and TAF weather

Enter ICAO airport designator
Station Type Date Time Source
DRZA METAR 2022/01/28 18:00 UTC NOAA

DRZA 281800Z 10016KT 6000 NSC 21/M07 Q1018


Station Type Date Time Source
DRZA Decoded METAR 2022/01/28 18:00 UTC NOAA

Agadez, Niger (DRZA) 16-58N 007-59E 502M
Jan 28, 2022 - 01:00 PM EST / 2022.01.28 1800 UTC
Wind: from the E (100 degrees) at 18 MPH (16 KT):0
Visibility: 3 mile(s):0
Temperature: 69 F (21 C)
Dew Point: 19 F (-7 C)
Relative Humidity: 14%
Pressure (altimeter): 30.06 in. Hg (1018 hPa)
ob: DRZA 281800Z 10016KT 6000 NSC 21/M07 Q1018
cycle: 18

Station Type Date Time Source
DRZA TAF 2022/01/28 12:30 UTC NOAA

TAF DRZA 281100Z 2812/2912 08015KT 6000 NSC
TEMPO 2812/2818 10025KT 3000 BLDU

Example: see airport list